Bluffton, IN

07:01 PM EST ye 27 November, 2014 (GMT -0500)
Borne Farms, Preble, IN | Change Station
CLOSE
Current Station
Personal Weather Stations
Location: Decatur, IN
Elevation: 814 ft
Nearby Weather Stations

Elev 814 ft 40.83 °N, 85.02 °W | Updated 7 minutes ago

Nubizita
Nubizita
27.8 °F
Feels Like 16 °F
N
16.0
Vento Variema Vento from WNW
Gusts 23.0 mph

Hodie
High -- | Low -- °F
--% Chance of Precip.
Yesterday
High -- | Low -- °F
Precip. -- in
7:41 AM 5:15 PM
Waxing Crescent, 34% visible
Presuro 30.36 in
Videbleso 9.0 milii
Clouds Nubizita 1900 ft
Ventokoldeso 16 °F
Rosifopunto 24 °F
Humideso 86%
Rainfall 0.00 in
Snow Depth Not available.
UV 0 out of 12
Pollen .10 out of 12
Air Quality Not available.
Flu Activity Not available.
METAR KFWA 272354Z 28015KT 9SM -SN OVC019 M03/M06 A3033 RMK AO2 SLP281 P0000 60000 T10281056 10000 21028 51021

More Conditions Fewer Conditions

Presuro 30.36 in
Videbleso 9.0 milii
Clouds Nubizita 1900 ft
Ventokoldeso 16 °F
Rosifopunto 24 °F
Humideso 86%
Rainfall 0.00 in
Snow Depth Not available.
UV 0 out of 12
Pollen .10 out of 12
Air Quality Not available.
Flu Activity Not available.
METAR KFWA 272354Z 28015KT 9SM -SN OVC019 M03/M06 A3033 RMK AO2 SLP281 P0000 60000 T10281056 10000 21028 51021

More Conditions Fewer Conditions

10-Day Weather Forecast

Almanac

Astronomy

Nov. 27, 2014 Rise Set
Actual Time
Civil Twilight
Nautical Twilight
Astronomical Twilight
Moon
Length Of Visible Light
Length of Day
Tomorrow will be .
, % of the Moon is Illuminated

Today's Extremes

State Highs State Lows

Community

WunderPhotos

Upload Photos

1,774,141 photos uploaded!

WunderBlogs® & News

Nearby

Air Quality

  Air Quality AQ Index Pollutant
Not available.

Snow Depth

Station Depth Elevation

Earthquake Activity

City Distance Mag. Time & Date
Minimum magnitude displayed is 2.5.

Coastal Water Temperatures

Loko Temperaturo

Nearby Weather Stations